sensor_id;sensor_type;location;lat;lon;timestamp;pressure;altitude;pressure_sealevel;temperature;humidity
72685;BME280;61365;52.162;4.500;2023-04-09T00:01:10;102583.50;;;7.84;89.39
72685;BME280;61365;52.162;4.500;2023-04-09T00:03:37;102586.28;;;7.88;90.02
72685;BME280;61365;52.162;4.500;2023-04-09T00:06:04;102590.41;;;7.81;90.38
72685;BME280;61365;52.162;4.500;2023-04-09T00:08:30;102578.75;;;7.96;90.00
72685;BME280;61365;52.162;4.500;2023-04-09T00:10:57;102582.81;;;7.65;91.32
72685;BME280;61365;52.162;4.500;2023-04-09T00:13:24;102582.84;;;7.66;91.63
72685;BME280;61365;52.162;4.500;2023-04-09T00:15:50;102586.53;;;7.94;91.50
72685;BME280;61365;52.162;4.500;2023-04-09T00:18:16;102590.66;;;7.88;89.97
72685;BME280;61365;52.162;4.500;2023-04-09T00:20:43;102583.56;;;7.85;89.15
72685;BME280;61365;52.162;4.500;2023-04-09T00:23:09;102584.19;;;7.55;91.01
72685;BME280;61365;52.162;4.500;2023-04-09T00:25:35;102581.78;;;7.84;90.96
72685;BME280;61365;52.162;4.500;2023-04-09T00:28:02;102583.81;;;7.91;90.10
72685;BME280;61365;52.162;4.500;2023-04-09T00:30:28;102583.16;;;7.74;90.02
72685;BME280;61365;52.162;4.500;2023-04-09T00:32:54;102586.06;;;7.82;90.15
72685;BME280;61365;52.162;4.500;2023-04-09T00:35:21;102579.06;;;7.81;90.13
72685;BME280;61365;52.162;4.500;2023-04-09T00:37:47;102583.13;;;7.51;90.57
72685;BME280;61365;52.162;4.500;2023-04-09T00:40:13;102578.16;;;8.03;89.18
72685;BME280;61365;52.162;4.500;2023-04-09T00:42:40;102570.69;;;7.67;89.86
72685;BME280;61365;52.162;4.500;2023-04-09T00:45:06;102572.38;;;7.65;90.52
72685;BME280;61365;52.162;4.500;2023-04-09T00:47:33;102573.34;;;7.69;89.67
72685;BME280;61365;52.162;4.500;2023-04-09T00:50:01;102565.97;;;7.58;90.56
72685;BME280;61365;52.162;4.500;2023-04-09T00:52:27;102573.13;;;7.62;89.80
72685;BME280;61365;52.162;4.500;2023-04-09T00:54:55;102571.44;;;7.64;90.69
72685;BME280;61365;52.162;4.500;2023-04-09T00:57:25;102564.28;;;7.59;89.71
72685;BME280;61365;52.162;4.500;2023-04-09T00:59:53;102575.13;;;7.47;91.31
72685;BME280;61365;52.162;4.500;2023-04-09T01:02:19;102575.44;;;7.55;91.94
72685;BME280;61365;52.162;4.500;2023-04-09T01:04:46;102568.91;;;7.43;92.10
72685;BME280;61365;52.162;4.500;2023-04-09T01:07:19;102570.09;;;7.51;91.42
72685;BME280;61365;52.162;4.500;2023-04-09T01:12:51;102568.28;;;7.50;91.59
72685;BME280;61365;52.162;4.500;2023-04-09T01:15:26;102560.88;;;7.61;92.02
72685;BME280;61365;52.162;4.500;2023-04-09T01:17:58;102566.88;;;7.59;90.89
72685;BME280;61365;52.162;4.500;2023-04-09T01:20:34;102565.50;;;7.46;91.39
72685;BME280;61365;52.162;4.500;2023-04-09T01:28:28;102574.78;;;7.60;90.92
72685;BME280;61365;52.162;4.500;2023-04-09T01:30:59;102571.41;;;7.63;90.48
72685;BME280;61365;52.162;4.500;2023-04-09T01:33:29;102571.22;;;7.58;90.43
72685;BME280;61365;52.162;4.500;2023-04-09T01:35:56;102574.16;;;7.66;91.28
72685;BME280;61365;52.162;4.500;2023-04-09T01:38:24;102574.56;;;7.54;91.54
72685;BME280;61365;52.162;4.500;2023-04-09T01:40:52;102566.59;;;7.74;90.74
72685;BME280;61365;52.162;4.500;2023-04-09T01:43:20;102569.31;;;8.00;89.22
72685;BME280;61365;52.162;4.500;2023-04-09T01:45:47;102565.47;;;7.90;88.88
72685;BME280;61365;52.162;4.500;2023-04-09T01:48:13;102564.94;;;7.76;89.75
72685;BME280;61365;52.162;4.500;2023-04-09T01:50:41;102568.63;;;7.81;89.88
72685;BME280;61365;52.162;4.500;2023-04-09T01:53:08;102566.88;;;7.81;89.59
72685;BME280;61365;52.162;4.500;2023-04-09T01:55:34;102564.94;;;7.76;90.25
72685;BME280;61365;52.162;4.500;2023-04-09T01:58:00;102568.63;;;7.81;90.33
72685;BME280;61365;52.162;4.500;2023-04-09T02:00:29;102562.91;;;7.69;90.33
72685;BME280;61365;52.162;4.500;2023-04-09T02:03:09;102563.41;;;8.05;88.42
72685;BME280;61365;52.162;4.500;2023-04-09T02:08:36;102555.22;;;7.50;90.36
72685;BME280;61365;52.162;4.500;2023-04-09T02:11:03;102563.81;;;7.69;89.95
72685;BME280;61365;52.162;4.500;2023-04-09T02:13:31;102559.50;;;7.48;90.58
72685;BME280;61365;52.162;4.500;2023-04-09T02:15:59;102547.16;;;7.44;91.42
72685;BME280;61365;52.162;4.500;2023-04-09T02:18:27;102547.09;;;7.65;90.39
72685;BME280;61365;52.162;4.500;2023-04-09T02:20:55;102548.59;;;7.81;89.55
72685;BME280;61365;52.162;4.500;2023-04-09T02:23:22;102550.25;;;7.57;90.67
72685;BME280;61365;52.162;4.500;2023-04-09T02:25:48;102543.78;;;7.70;90.34
72685;BME280;61365;52.162;4.500;2023-04-09T02:28:15;102532.00;;;7.58;89.95
72685;BME280;61365;52.162;4.500;2023-04-09T02:30:41;102532.56;;;7.49;90.61
72685;BME280;61365;52.162;4.500;2023-04-09T02:33:07;102526.16;;;7.41;91.04
72685;BME280;61365;52.162;4.500;2023-04-09T02:35:33;102532.34;;;7.66;90.39
72685;BME280;61365;52.162;4.500;2023-04-09T02:38:00;102532.22;;;7.63;90.83
72685;BME280;61365;52.162;4.500;2023-04-09T02:40:26;102528.78;;;7.64;90.28
72685;BME280;61365;52.162;4.500;2023-04-09T02:42:53;102532.97;;;7.60;90.48
72685;BME280;61365;52.162;4.500;2023-04-09T02:45:19;102531.97;;;7.57;91.25
72685;BME280;61365;52.162;4.500;2023-04-09T02:47:45;102532.38;;;7.68;90.83
72685;BME280;61365;52.162;4.500;2023-04-09T02:50:11;102519.75;;;7.56;91.34
72685;BME280;61365;52.162;4.500;2023-04-09T02:52:37;102524.91;;;7.54;91.08
72685;BME280;61365;52.162;4.500;2023-04-09T02:55:04;102518.38;;;7.65;91.30
72685;BME280;61365;52.162;4.500;2023-04-09T02:57:30;102522.31;;;7.54;91.53
72685;BME280;61365;52.162;4.500;2023-04-09T02:59:58;102519.28;;;7.66;91.28
72685;BME280;61365;52.162;4.500;2023-04-09T03:02:24;102505.56;;;7.49;91.19
72685;BME280;61365;52.162;4.500;2023-04-09T03:04:50;102510.28;;;7.59;91.49
72685;BME280;61365;52.162;4.500;2023-04-09T03:07:17;102510.19;;;7.56;91.90
72685;BME280;61365;52.162;4.500;2023-04-09T03:09:43;102509.78;;;7.68;91.69
72685;BME280;61365;52.162;4.500;2023-04-09T03:12:09;102511.84;;;7.54;91.67
72685;BME280;61365;52.162;4.500;2023-04-09T03:14:35;102510.13;;;7.55;91.85
72685;BME280;61365;52.162;4.500;2023-04-09T03:17:02;102512.44;;;7.47;92.12
72685;BME280;61365;52.162;4.500;2023-04-09T03:19:29;102513.31;;;7.47;92.62
72685;BME280;61365;52.162;4.500;2023-04-09T03:21:56;102506.72;;;7.57;92.47
72685;BME280;61365;52.162;4.500;2023-04-09T03:24:22;102511.84;;;7.54;91.98
72685;BME280;61365;52.162;4.500;2023-04-09T03:26:48;102502.28;;;7.55;92.17
72685;BME280;61365;52.162;4.500;2023-04-09T03:29:14;102503.16;;;7.78;91.07
72685;BME280;61365;52.162;4.500;2023-04-09T03:31:40;102496.03;;;7.74;90.81
72685;BME280;61365;52.162;4.500;2023-04-09T03:34:06;102492.47;;;7.72;90.51
72685;BME280;61365;52.162;4.500;2023-04-09T03:36:33;102493.59;;;7.78;90.81
72685;BME280;61365;52.162;4.500;2023-04-09T03:38:59;102498.09;;;7.82;90.87
72685;BME280;61365;52.162;4.500;2023-04-09T03:41:25;102488.53;;;7.83;90.37
72685;BME280;61365;52.162;4.500;2023-04-09T03:43:52;102486.97;;;7.88;90.66
72685;BME280;61365;52.162;4.500;2023-04-09T03:46:18;102490.97;;;7.78;90.91
72685;BME280;61365;52.162;4.500;2023-04-09T03:48:44;102486.75;;;7.82;91.10
72685;BME280;61365;52.162;4.500;2023-04-09T03:51:11;102491.97;;;7.82;91.53
72685;BME280;61365;52.162;4.500;2023-04-09T03:53:38;102489.31;;;7.80;91.35
72685;BME280;61365;52.162;4.500;2023-04-09T03:56:05;102486.53;;;8.00;91.18
72685;BME280;61365;52.162;4.500;2023-04-09T03:58:31;102488.88;;;7.92;91.33
72685;BME280;61365;52.162;4.500;2023-04-09T04:00:57;102490.53;;;7.90;91.13
72685;BME280;61365;52.162;4.500;2023-04-09T04:03:23;102486.97;;;7.88;91.74
72685;BME280;61365;52.162;4.500;2023-04-09T04:05:49;102490.41;;;7.87;91.43
72685;BME280;61365;52.162;4.500;2023-04-09T04:08:16;102492.19;;;7.88;91.65
72685;BME280;61365;52.162;4.500;2023-04-09T04:10:42;102497.50;;;7.90;91.81
72685;BME280;61365;52.162;4.500;2023-04-09T04:13:08;102496.81;;;7.95;91.35
72685;BME280;61365;52.162;4.500;2023-04-09T04:15:43;102489.41;;;8.08;90.95
72685;BME280;61365;52.162;4.500;2023-04-09T04:18:09;102489.72;;;8.16;90.13
72685;BME280;61365;52.162;4.500;2023-04-09T04:20:36;102490.09;;;8.02;90.01
72685;BME280;61365;52.162;4.500;2023-04-09T04:23:03;102497.31;;;8.09;89.99
72685;BME280;61365;52.162;4.500;2023-04-09T04:25:29;102487.81;;;8.11;89.15
72685;BME280;61365;52.162;4.500;2023-04-09T04:27:56;102492.59;;;8.23;88.40
72685;BME280;61365;52.162;4.500;2023-04-09T04:30:22;102487.88;;;8.39;87.89
72685;BME280;61365;52.162;4.500;2023-04-09T04:32:48;102483.00;;;8.48;87.32
72685;BME280;61365;52.162;4.500;2023-04-09T04:35:15;102487.53;;;8.52;86.70
72685;BME280;61365;52.162;4.500;2023-04-09T04:37:41;102483.59;;;8.65;86.53
72685;BME280;61365;52.162;4.500;2023-04-09T04:40:07;102485.50;;;8.71;86.19
72685;BME280;61365;52.162;4.500;2023-04-09T04:42:34;102487.78;;;8.88;84.80
72685;BME280;61365;52.162;4.500;2023-04-09T04:45:00;102490.78;;;8.73;85.57
72685;BME280;61365;52.162;4.500;2023-04-09T04:47:26;102485.25;;;8.63;86.25
72685;BME280;61365;52.162;4.500;2023-04-09T04:49:52;102493.84;;;8.86;84.96
72685;BME280;61365;52.162;4.500;2023-04-09T04:52:19;102491.66;;;8.99;84.86
72685;BME280;61365;52.162;4.500;2023-04-09T04:54:45;102495.63;;;8.88;84.37
72685;BME280;61365;52.162;4.500;2023-04-09T04:57:11;102499.53;;;8.73;85.00
72685;BME280;61365;52.162;4.500;2023-04-09T04:59:40;102490.00;;;8.75;85.22
72685;BME280;61365;52.162;4.500;2023-04-09T05:02:06;102494.56;;;8.55;85.93
72685;BME280;61365;52.162;4.500;2023-04-09T05:04:33;102505.88;;;8.54;85.55
72685;BME280;61365;52.162;4.500;2023-04-09T05:06:59;102501.81;;;8.62;86.04
72685;BME280;61365;52.162;4.500;2023-04-09T05:09:25;102506.31;;;8.66;85.86
72685;BME280;61365;52.162;4.500;2023-04-09T05:11:51;102505.13;;;8.84;85.36
72685;BME280;61365;52.162;4.500;2023-04-09T05:14:17;102503.94;;;8.74;85.95
72685;BME280;61365;52.162;4.500;2023-04-09T05:16:45;102510.59;;;8.64;86.18
72685;BME280;61365;52.162;4.500;2023-04-09T05:19:12;102508.44;;;8.78;85.62
72685;BME280;61365;52.162;4.500;2023-04-09T05:21:38;102501.44;;;8.51;86.08
72685;BME280;61365;52.162;4.500;2023-04-09T05:24:04;102509.22;;;8.76;85.82
72685;BME280;61365;52.162;4.500;2023-04-09T05:26:30;102512.31;;;8.64;86.11
72685;BME280;61365;52.162;4.500;2023-04-09T05:28:57;102502.31;;;8.78;85.62
72685;BME280;61365;52.162;4.500;2023-04-09T05:31:23;102504.94;;;9.05;84.17
72685;BME280;61365;52.162;4.500;2023-04-09T05:33:49;102502.38;;;9.07;83.89
72685;BME280;61365;52.162;4.500;2023-04-09T05:36:16;102497.16;;;9.08;84.46
72685;BME280;61365;52.162;4.500;2023-04-09T05:38:43;102505.63;;;8.99;84.92
72685;BME280;61365;52.162;4.500;2023-04-09T05:41:11;102506.72;;;9.06;83.75
72685;BME280;61365;52.162;4.500;2023-04-09T05:43:37;102503.94;;;9.01;84.29
72685;BME280;61365;52.162;4.500;2023-04-09T05:46:06;102506.22;;;8.91;84.95
72685;BME280;61365;52.162;4.500;2023-04-09T05:48:34;102501.16;;;8.95;84.85
72685;BME280;61365;52.162;4.500;2023-04-09T05:51:01;102509.25;;;9.03;84.20
72685;BME280;61365;52.162;4.500;2023-04-09T05:53:27;102506.63;;;9.03;85.20
72685;BME280;61365;52.162;4.500;2023-04-09T05:55:54;102514.84;;;9.15;84.51
72685;BME280;61365;52.162;4.500;2023-04-09T05:58:20;102509.28;;;9.05;84.23
72685;BME280;61365;52.162;4.500;2023-04-09T06:00:46;102514.16;;;8.94;84.36
72685;BME280;61365;52.162;4.500;2023-04-09T06:03:12;102514.53;;;9.05;84.47
72685;BME280;61365;52.162;4.500;2023-04-09T06:05:38;102506.88;;;9.11;83.91
72685;BME280;61365;52.162;4.500;2023-04-09T06:08:04;102518.25;;;9.40;82.27
72685;BME280;61365;52.162;4.500;2023-04-09T06:10:31;102510.47;;;9.14;83.75
72685;BME280;61365;52.162;4.500;2023-04-09T06:12:57;102513.16;;;9.16;83.65
72685;BME280;61365;52.162;4.500;2023-04-09T06:15:23;102509.53;;;9.41;82.68
72685;BME280;61365;52.162;4.500;2023-04-09T06:17:50;102509.84;;;8.94;82.65
72685;BME280;61365;52.162;4.500;2023-04-09T06:20:16;102513.66;;;9.04;83.34
72685;BME280;61365;52.162;4.500;2023-04-09T06:22:42;102513.75;;;9.07;83.14
72685;BME280;61365;52.162;4.500;2023-04-09T06:25:08;102515.25;;;9.28;81.95
72685;BME280;61365;52.162;4.500;2023-04-09T06:27:34;102516.31;;;9.06;83.28
72685;BME280;61365;52.162;4.500;2023-04-09T06:30:00;102523.56;;;9.14;83.14
72685;BME280;61365;52.162;4.500;2023-04-09T06:32:26;102521.50;;;9.04;83.32
72685;BME280;61365;52.162;4.500;2023-04-09T06:34:53;102524.88;;;9.01;83.89
72685;BME280;61365;52.162;4.500;2023-04-09T06:37:19;102525.91;;;9.05;83.67
72685;BME280;61365;52.162;4.500;2023-04-09T06:39:45;102529.50;;;9.09;83.03
72685;BME280;61365;52.162;4.500;2023-04-09T06:42:11;102530.31;;;9.06;82.87
72685;BME280;61365;52.162;4.500;2023-04-09T06:44:37;102533.53;;;8.99;84.06
72685;BME280;61365;52.162;4.500;2023-04-09T06:47:03;102513.38;;;9.24;83.69
72685;BME280;61365;52.162;4.500;2023-04-09T06:49:30;102520.78;;;9.37;83.22
72685;BME280;61365;52.162;4.500;2023-04-09T06:51:56;102522.00;;;9.77;80.20
72685;BME280;61365;52.162;4.500;2023-04-09T06:54:22;102525.06;;;9.64;80.59
72685;BME280;61365;52.162;4.500;2023-04-09T06:56:48;102518.81;;;9.59;81.30
72685;BME280;61365;52.162;4.500;2023-04-09T06:59:14;102521.41;;;9.59;81.52
72685;BME280;61365;52.162;4.500;2023-04-09T07:01:41;102517.91;;;9.57;82.11
72685;BME280;61365;52.162;4.500;2023-04-09T07:04:07;102521.16;;;9.79;81.44
72685;BME280;61365;52.162;4.500;2023-04-09T07:06:33;102519.75;;;9.61;80.98
72685;BME280;61365;52.162;4.500;2023-04-09T07:08:59;102519.31;;;9.47;81.24
72685;BME280;61365;52.162;4.500;2023-04-09T07:11:26;102518.66;;;9.53;81.13
72685;BME280;61365;52.162;4.500;2023-04-09T07:13:52;102524.84;;;9.56;80.50
72685;BME280;61365;52.162;4.500;2023-04-09T07:16:18;102518.84;;;9.31;82.04
72685;BME280;61365;52.162;4.500;2023-04-09T07:18:44;102519.13;;;9.12;82.85
72685;BME280;61365;52.162;4.500;2023-04-09T07:21:11;102516.53;;;9.41;82.01
72685;BME280;61365;52.162;4.500;2023-04-09T07:23:37;102527.56;;;9.59;81.45
72685;BME280;61365;52.162;4.500;2023-04-09T07:26:04;102521.56;;;9.93;78.80
72685;BME280;61365;52.162;4.500;2023-04-09T07:28:30;102518.91;;;9.62;80.50
72685;BME280;61365;52.162;4.500;2023-04-09T07:30:58;102514.19;;;9.50;81.62
72685;BME280;61365;52.162;4.500;2023-04-09T07:33:27;102521.91;;;9.45;82.35
72685;BME280;61365;52.162;4.500;2023-04-09T07:35:53;102523.69;;;9.46;82.08
72685;BME280;61365;52.162;4.500;2023-04-09T07:38:20;102518.78;;;9.57;82.07
72685;BME280;61365;52.162;4.500;2023-04-09T07:40:46;102515.75;;;9.74;81.39
72685;BME280;61365;52.162;4.500;2023-04-09T07:43:13;102523.09;;;9.86;80.08
72685;BME280;61365;52.162;4.500;2023-04-09T07:45:39;102519.38;;;9.77;79.85
72685;BME280;61365;52.162;4.500;2023-04-09T07:48:09;102518.44;;;9.75;80.60
72685;BME280;61365;52.162;4.500;2023-04-09T07:50:35;102522.63;;;10.01;79.41
72685;BME280;61365;52.162;4.500;2023-04-09T07:53:01;102521.28;;;9.83;79.60
72685;BME280;61365;52.162;4.500;2023-04-09T07:55:27;102527.75;;;9.66;80.58
72685;BME280;61365;52.162;4.500;2023-04-09T07:57:53;102514.69;;;9.67;80.95
72685;BME280;61365;52.162;4.500;2023-04-09T08:00:20;102514.50;;;9.61;80.39
72685;BME280;61365;52.162;4.500;2023-04-09T08:02:46;102516.13;;;9.56;81.40
72685;BME280;61365;52.162;4.500;2023-04-09T08:05:12;102521.41;;;9.59;80.84
72685;BME280;61365;52.162;4.500;2023-04-09T08:07:38;102518.97;;;9.64;80.34
72685;BME280;61365;52.162;4.500;2023-04-09T08:10:05;102523.03;;;9.54;81.21
72685;BME280;61365;52.162;4.500;2023-04-09T08:12:32;102517.59;;;9.48;81.50
72685;BME280;61365;52.162;4.500;2023-04-09T08:14:58;102519.81;;;9.63;80.82
72685;BME280;61365;52.162;4.500;2023-04-09T08:17:25;102525.69;;;9.84;80.10
72685;BME280;61365;52.162;4.500;2023-04-09T08:19:52;102519.94;;;9.67;80.83
72685;BME280;61365;52.162;4.500;2023-04-09T08:22:18;102516.66;;;9.45;80.79
72685;BME280;61365;52.162;4.500;2023-04-09T08:24:44;102516.34;;;9.64;80.58
72685;BME280;61365;52.162;4.500;2023-04-09T08:27:16;102519.50;;;9.53;80.28
72685;BME280;61365;52.162;4.500;2023-04-09T08:29:42;102523.81;;;9.51;80.07
72685;BME280;61365;52.162;4.500;2023-04-09T08:32:08;102517.91;;;9.29;80.71
72685;BME280;61365;52.162;4.500;2023-04-09T08:34:35;102528.69;;;9.39;80.59
72685;BME280;61365;52.162;4.500;2023-04-09T08:37:01;102528.41;;;9.29;81.59
72685;BME280;61365;52.162;4.500;2023-04-09T08:39:27;102525.16;;;9.38;81.62
72685;BME280;61365;52.162;4.500;2023-04-09T08:41:53;102527.88;;;9.41;81.86
72685;BME280;61365;52.162;4.500;2023-04-09T08:44:26;102527.78;;;9.67;80.31
72685;BME280;61365;52.162;4.500;2023-04-09T08:46:53;102522.22;;;9.85;78.83
72685;BME280;61365;52.162;4.500;2023-04-09T08:49:20;102528.22;;;9.52;80.68
72685;BME280;61365;52.162;4.500;2023-04-09T08:51:46;102532.28;;;9.42;80.64
72685;BME280;61365;52.162;4.500;2023-04-09T08:54:14;102534.16;;;9.46;80.21
72685;BME280;61365;52.162;4.500;2023-04-09T08:56:42;102525.88;;;9.32;81.18
72685;BME280;61365;52.162;4.500;2023-04-09T08:59:08;102523.38;;;9.65;80.01
72685;BME280;61365;52.162;4.500;2023-04-09T09:01:34;102531.69;;;9.51;80.03
72685;BME280;61365;52.162;4.500;2023-04-09T09:04:01;102528.44;;;9.60;79.76
72685;BME280;61365;52.162;4.500;2023-04-09T09:06:32;102524.94;;;9.30;80.50
72685;BME280;61365;52.162;4.500;2023-04-09T09:09:06;102530.28;;;9.34;80.38
72685;BME280;61365;52.162;4.500;2023-04-09T09:11:37;102525.69;;;9.26;80.52
72685;BME280;61365;52.162;4.500;2023-04-09T09:14:06;102522.56;;;9.38;81.19
72685;BME280;61365;52.162;4.500;2023-04-09T09:16:34;102527.72;;;9.08;80.90
72685;BME280;61365;52.162;4.500;2023-04-09T09:19:04;102529.00;;;9.21;81.42
72685;BME280;61365;52.162;4.500;2023-04-09T09:21:31;102528.84;;;9.43;80.71
72685;BME280;61365;52.162;4.500;2023-04-09T09:24:03;102528.03;;;9.17;81.55
72685;BME280;61365;52.162;4.500;2023-04-09T09:26:41;102523.91;;;9.25;80.95
72685;BME280;61365;52.162;4.500;2023-04-09T09:29:08;102522.19;;;9.26;80.68
72685;BME280;61365;52.162;4.500;2023-04-09T09:31:44;102519.19;;;9.42;80.10
72685;BME280;61365;52.162;4.500;2023-04-09T09:34:16;102509.81;;;9.22;80.50
72685;BME280;61365;52.162;4.500;2023-04-09T09:36:43;102511.59;;;9.23;81.08
72685;BME280;61365;52.162;4.500;2023-04-09T09:39:11;102513.91;;;9.13;80.91
72685;BME280;61365;52.162;4.500;2023-04-09T09:41:38;102521.69;;;9.10;80.91
72685;BME280;61365;52.162;4.500;2023-04-09T09:44:05;102517.38;;;9.12;80.37
72685;BME280;61365;52.162;4.500;2023-04-09T09:46:33;102510.38;;;9.40;79.58
72685;BME280;61365;52.162;4.500;2023-04-09T09:49:04;102511.97;;;9.64;78.51
72685;BME280;61365;52.162;4.500;2023-04-09T09:51:31;102508.25;;;9.56;78.89
72685;BME280;61365;52.162;4.500;2023-04-09T09:53:58;102502.19;;;9.29;79.48
72685;BME280;61365;52.162;4.500;2023-04-09T09:56:34;102502.44;;;9.37;79.35
72685;BME280;61365;52.162;4.500;2023-04-09T10:01:45;102497.03;;;9.04;79.46
72685;BME280;61365;52.162;4.500;2023-04-09T10:04:13;102496.41;;;9.11;79.82
72685;BME280;61365;52.162;4.500;2023-04-09T10:06:42;102493.72;;;9.38;78.82
72685;BME280;61365;52.162;4.500;2023-04-09T10:09:09;102495.09;;;9.54;77.85
72685;BME280;61365;52.162;4.500;2023-04-09T10:11:37;102490.91;;;9.61;77.06
72685;BME280;61365;52.162;4.500;2023-04-09T10:14:08;102483.53;;;9.78;77.06
72685;BME280;61365;52.162;4.500;2023-04-09T10:16:34;102486.38;;;9.55;77.39
72685;BME280;61365;52.162;4.500;2023-04-09T10:19:00;102488.59;;;9.41;77.62
72685;BME280;61365;52.162;4.500;2023-04-09T10:21:35;102485.53;;;9.56;77.12
72685;BME280;61365;52.162;4.500;2023-04-09T10:24:12;102489.41;;;9.69;76.29
72685;BME280;61365;52.162;4.500;2023-04-09T10:26:40;102490.06;;;9.62;76.84
72685;BME280;61365;52.162;4.500;2023-04-09T10:29:10;102480.19;;;9.53;77.54
72685;BME280;61365;52.162;4.500;2023-04-09T10:31:47;102477.53;;;9.81;76.35
72685;BME280;61365;52.162;4.500;2023-04-09T10:34:20;102470.50;;;9.80;75.64
72685;BME280;61365;52.162;4.500;2023-04-09T10:36:52;102463.25;;;9.71;76.54
72685;BME280;61365;52.162;4.500;2023-04-09T10:39:24;102471.47;;;9.53;76.55
72685;BME280;61365;52.162;4.500;2023-04-09T10:42:00;102455.06;;;9.90;75.27
72685;BME280;61365;52.162;4.500;2023-04-09T10:44:32;102460.41;;;10.27;75.66
72685;BME280;61365;52.162;4.500;2023-04-09T10:47:00;102455.72;;;10.15;74.56
72685;BME280;61365;52.162;4.500;2023-04-09T10:49:34;102445.50;;;10.60;74.17
72685;BME280;61365;52.162;4.500;2023-04-09T10:59:32;102442.13;;;10.64;72.65
72685;BME280;61365;52.162;4.500;2023-04-09T11:01:59;102432.13;;;10.86;72.07
72685;BME280;61365;52.162;4.500;2023-04-09T11:04:28;102439.06;;;10.47;73.40
72685;BME280;61365;52.162;4.500;2023-04-09T11:07:08;102438.22;;;10.48;72.81
72685;BME280;61365;52.162;4.500;2023-04-09T11:09:34;102427.91;;;11.32;70.66
72685;BME280;61365;52.162;4.500;2023-04-09T11:12:01;102433.88;;;11.25;71.24
72685;BME280;61365;52.162;4.500;2023-04-09T11:14:28;102422.00;;;11.87;68.38
72685;BME280;61365;52.162;4.500;2023-04-09T11:16:54;102419.09;;;11.30;70.09
72685;BME280;61365;52.162;4.500;2023-04-09T11:19:20;102414.69;;;11.29;71.15
72685;BME280;61365;52.162;4.500;2023-04-09T11:21:46;102422.06;;;11.90;69.37
72685;BME280;61365;52.162;4.500;2023-04-09T11:24:13;102406.03;;;12.25;68.44
72685;BME280;61365;52.162;4.500;2023-04-09T11:26:42;102406.44;;;12.50;67.14
72685;BME280;61365;52.162;4.500;2023-04-09T11:29:08;102406.94;;;12.26;66.87
72685;BME280;61365;52.162;4.500;2023-04-09T11:31:34;102401.25;;;12.55;65.65
72685;BME280;61365;52.162;4.500;2023-04-09T11:34:01;102396.16;;;12.10;66.40
72685;BME280;61365;52.162;4.500;2023-04-09T11:36:27;102389.66;;;12.42;66.51
72685;BME280;61365;52.162;4.500;2023-04-09T11:38:54;102401.31;;;12.06;66.87
72685;BME280;61365;52.162;4.500;2023-04-09T11:41:34;102403.88;;;12.01;67.23
72685;BME280;61365;52.162;4.500;2023-04-09T11:44:02;102403.59;;;11.89;68.04
72685;BME280;61365;52.162;4.500;2023-04-09T11:46:32;102399.44;;;12.51;65.34
72685;BME280;61365;52.162;4.500;2023-04-09T11:48:59;102401.84;;;12.35;66.88
72685;BME280;61365;52.162;4.500;2023-04-09T11:51:25;102393.94;;;12.35;68.21
72685;BME280;61365;52.162;4.500;2023-04-09T11:53:53;102401.81;;;11.87;69.04
72685;BME280;61365;52.162;4.500;2023-04-09T11:56:19;102388.00;;;12.49;66.78
72685;BME280;61365;52.162;4.500;2023-04-09T11:58:46;102390.56;;;12.44;67.64
72685;BME280;61365;52.162;4.500;2023-04-09T12:01:13;102384.81;;;12.71;66.80
72685;BME280;61365;52.162;4.500;2023-04-09T12:03:40;102387.94;;;12.44;66.92
72685;BME280;61365;52.162;4.500;2023-04-09T12:06:07;102394.34;;;12.61;65.67
72685;BME280;61365;52.162;4.500;2023-04-09T12:08:34;102390.22;;;12.22;67.73
72685;BME280;61365;52.162;4.500;2023-04-09T12:11:11;102387.59;;;12.81;65.78
72685;BME280;61365;52.162;4.500;2023-04-09T12:13:39;102391.66;;;12.58;67.27
72685;BME280;61365;52.162;4.500;2023-04-09T12:16:12;102391.97;;;12.79;65.91
72685;BME280;61365;52.162;4.500;2023-04-09T12:18:39;102382.41;;;12.87;66.64
72685;BME280;61365;52.162;4.500;2023-04-09T12:21:05;102380.38;;;12.66;66.74
72685;BME280;61365;52.162;4.500;2023-04-09T12:23:31;102386.78;;;12.85;67.97
72685;BME280;61365;52.162;4.500;2023-04-09T12:25:58;102382.84;;;12.56;66.34
72685;BME280;61365;52.162;4.500;2023-04-09T12:28:25;102385.78;;;12.76;68.03
72685;BME280;61365;52.162;4.500;2023-04-09T12:30:52;102387.31;;;13.27;65.55
72685;BME280;61365;52.162;4.500;2023-04-09T12:33:19;102386.81;;;13.56;66.23
72685;BME280;61365;52.162;4.500;2023-04-09T12:35:46;102383.88;;;13.31;66.57
72685;BME280;61365;52.162;4.500;2023-04-09T12:38:12;102380.88;;;13.03;65.21
72685;BME280;61365;52.162;4.500;2023-04-09T12:40:38;102385.03;;;12.87;66.81
72685;BME280;61365;52.162;4.500;2023-04-09T12:43:04;102385.94;;;12.86;66.54
72685;BME280;61365;52.162;4.500;2023-04-09T12:45:31;102372.72;;;13.52;65.57
72685;BME280;61365;52.162;4.500;2023-04-09T12:47:57;102370.94;;;13.48;64.93
72685;BME280;61365;52.162;4.500;2023-04-09T12:50:24;102367.91;;;13.94;64.14
72685;BME280;61365;52.162;4.500;2023-04-09T12:52:50;102367.38;;;14.40;62.01
72685;BME280;61365;52.162;4.500;2023-04-09T12:55:16;102365.53;;;14.26;63.19
72685;BME280;61365;52.162;4.500;2023-04-09T12:57:43;102366.50;;;14.41;62.90
72685;BME280;61365;52.162;4.500;2023-04-09T13:00:11;102366.28;;;14.10;62.63
72685;BME280;61365;52.162;4.500;2023-04-09T13:02:38;102366.53;;;14.43;61.99
72685;BME280;61365;52.162;4.500;2023-04-09T13:05:04;102360.88;;;13.98;62.73
72685;BME280;61365;52.162;4.500;2023-04-09T13:07:30;102345.97;;;14.03;62.84
72685;BME280;61365;52.162;4.500;2023-04-09T13:09:56;102348.66;;;14.06;63.35
72685;BME280;61365;52.162;4.500;2023-04-09T13:12:23;102352.13;;;14.02;63.44
72685;BME280;61365;52.162;4.500;2023-04-09T13:14:50;102352.13;;;14.03;63.05
72685;BME280;61365;52.162;4.500;2023-04-09T13:17:18;102351.50;;;14.35;61.83
72685;BME280;61365;52.162;4.500;2023-04-09T13:19:44;102345.22;;;14.19;64.37